Time;durP1;ratioP1;P1;durP2;ratioP2;P2;SDS_P1;SDS_P2;PMS_P1;PMS_P2;Temp;Humidity;BMP_temperature;BMP_pressure;BME280_temperature;BME280_humidity;BME280_pressure;Samples;Min_cycle;Max_cycle;Signal;HPM_P1;HPM_P2
2023/05/12 00:02:10;;;;;;;12.15;5.45;;;;;;;10.92;44.06;100821.02;1642563;87;21299;-79
2023/05/12 00:05:17;;;;;;;18.37;6.03;;;;;;;10.97;44.21;100821.37;1643715;87;21756;-79
2023/05/12 00:08:23;;;;;;;10.88;5.40;;;;;;;11.03;44.11;100814.36;1643622;87;21224;-80
2023/05/12 00:11:29;;;;;;;17.73;5.58;;;;;;;11.05;44.10;100822.40;1643115;87;21275;-80
2023/05/12 00:14:36;;;;;;;10.10;5.15;;;;;;;10.95;44.35;100815.19;1643650;87;21219;-80
2023/05/12 00:17:41;;;;;;;15.28;6.65;;;;;;;11.09;44.10;100815.56;1643565;87;21272;-79
2023/05/12 00:20:48;;;;;;;14.73;5.55;;;;;;;11.00;44.44;100810.58;1643337;87;21794;-79
2023/05/12 00:23:54;;;;;;;13.68;5.45;;;;;;;11.00;44.60;100815.54;1643649;87;21223;-79
2023/05/12 00:27:00;;;;;;;15.35;5.80;;;;;;;10.86;44.87;100820.28;1643666;87;21223;-79
2023/05/12 00:30:05;;;;;;;11.78;6.08;;;;;;;11.04;44.68;100819.32;1643570;87;21800;-79
2023/05/12 00:33:12;;;;;;;14.78;6.40;;;;;;;11.14;44.49;100823.62;1643665;87;21226;-79
2023/05/12 00:36:17;;;;;;;14.75;6.87;;;;;;;11.29;44.21;100814.23;1642583;86;21239;-79
2023/05/12 00:39:23;;;;;;;12.70;5.95;;;;;;;11.37;44.17;100816.14;1643615;87;21825;-79
2023/05/12 00:42:29;;;;;;;10.28;5.72;;;;;;;11.34;44.17;100820.57;1642656;87;21231;-79
2023/05/12 00:45:35;;;;;;;11.85;6.62;;;;;;;11.38;44.08;100824.17;1643673;87;21761;-79
2023/05/12 00:48:41;;;;;;;16.62;6.75;;;;;;;11.27;44.10;100821.77;1643679;87;21275;-79
2023/05/12 00:51:48;;;;;;;12.10;6.12;;;;;;;11.30;44.00;100824.19;1643231;87;21239;-79
2023/05/12 00:54:53;;;;;;;16.57;6.87;;;;;;;11.26;44.06;100823.66;1643700;87;21219;-79
2023/05/12 00:57:59;;;;;;;19.27;6.80;;;;;;;11.31;44.05;100821.78;1643885;87;21842;-79
2023/05/12 01:01:05;;;;;;;13.72;6.67;;;;;;;11.28;44.25;100822.63;1642502;87;21263;-79
2023/05/12 01:04:13;;;;;;;11.65;6.58;;;;;;;11.32;44.23;100825.38;1643532;87;21219;-78
2023/05/12 01:07:31;;;;;;;24.15;6.53;;;;;;;11.52;43.87;100819.39;1642707;87;21295;-78
2023/05/12 01:10:36;;;;;;;18.12;6.28;;;;;;;11.66;43.58;100822.48;1643583;87;21267;-78
2023/05/12 01:13:43;;;;;;;12.07;6.78;;;;;;;11.67;43.44;100822.86;1643655;87;21267;-81
2023/05/12 01:16:56;;;;;;;24.50;7.00;;;;;;;11.48;43.73;100819.42;1643655;87;21279;-78
2023/05/12 01:20:04;;;;;;;11.45;6.30;;;;;;;11.39;43.97;100817.70;1642528;87;21227;-78
2023/05/12 01:23:10;;;;;;;15.95;7.05;;;;;;;11.32;44.01;100817.16;1642658;87;21238;-78
2023/05/12 01:26:15;;;;;;;16.02;6.90;;;;;;;11.27;44.18;100823.14;1644759;87;21220;-78
2023/05/12 01:29:21;;;;;;;15.38;6.28;;;;;;;11.23;44.25;100823.98;1644540;87;21231;-78
2023/05/12 01:32:26;;;;;;;24.43;6.35;;;;;;;11.14;44.42;100822.77;1642421;87;21227;-78
2023/05/12 01:35:32;;;;;;;19.60;7.05;;;;;;;11.04;44.54;100819.32;1643548;87;21203;-78
2023/05/12 01:38:38;;;;;;;24.40;7.50;;;;;;;10.89;44.88;100824.07;1651523;87;21244;-78
2023/05/12 01:41:44;;;;;;;17.92;6.75;;;;;;;10.71;45.38;100821.95;1651319;87;21197;-79
2023/05/12 01:44:49;;;;;;;26.48;7.53;;;;;;;11.00;45.05;100822.38;1651369;87;21268;-79
2023/05/12 01:47:56;;;;;;;16.87;8.40;;;;;;;11.17;44.69;100821.07;1651418;87;21213;-81
2023/05/12 01:51:03;;;;;;;21.30;7.40;;;;;;;11.24;44.62;100817.99;1651389;87;21225;-79
2023/05/12 01:54:08;;;;;;;19.37;8.43;;;;;;;11.30;44.61;100815.97;1653372;86;21788;-78
2023/05/12 01:57:14;;;;;;;15.63;7.95;;;;;;;11.29;44.84;100822.96;1650269;87;21212;-78
2023/05/12 02:00:22;;;;;;;24.55;7.72;;;;;;;11.40;44.51;100814.44;1651777;86;21252;-78
2023/05/12 02:03:28;;;;;;;23.22;8.28;;;;;;;11.47;44.36;100818.20;1650068;87;21257;-78
2023/05/12 02:06:34;;;;;;;26.37;9.00;;;;;;;11.23;44.88;100825.87;1652902;87;21270;-78
2023/05/12 02:09:40;;;;;;;21.37;8.13;;;;;;;11.20;44.90;100824.34;1651990;87;21923;-81
2023/05/12 02:12:40;;;;;;;20.00;7.60;;;;;;;11.12;45.04;100824.83;1652736;87;21277;-81
2023/05/12 02:15:33;;;;;;;21.30;9.13;;;;;;;11.12;45.12;100833.04;1653179;87;21274;-81
2023/05/12 02:18:19;;;;;;;21.30;9.18;;;;;;;10.98;45.15;100827.18;1653115;87;21266;-81
2023/05/12 02:21:12;;;;;;;23.52;9.88;;;;;;;11.03;45.26;100834.04;1638962;87;21497;-81
2023/05/12 02:24:18;;;;;;;22.27;9.20;;;;;;;11.07;45.26;100829.44;1637718;87;21227;-81
2023/05/12 02:27:22;;;;;;;20.88;8.75;;;;;;;11.07;45.29;100827.22;1638847;87;21263;-78
2023/05/12 02:30:27;;;;;;;19.50;8.73;;;;;;;11.49;44.77;100830.72;1638877;87;21262;-78
2023/05/12 02:33:33;;;;;;;29.70;9.45;;;;;;;11.82;44.27;100833.50;1646300;87;21202;-78
2023/05/12 02:36:39;;;;;;;27.02;9.85;;;;;;;12.14;43.82;100834.48;1653782;84;21254;-78
2023/05/12 02:39:44;;;;;;;25.85;9.70;;;;;;;12.46;43.22;100836.30;1652162;86;21283;-78
2023/05/12 02:42:50;;;;;;;24.00;10.25;;;;;;;12.59;42.95;100843.98;1659087;86;21238;-79
2023/05/12 02:45:56;;;;;;;29.98;10.45;;;;;;;13.16;42.08;100843.73;1686499;84;21240;-79
2023/05/12 02:49:03;;;;;;;24.80;9.80;;;;;;;13.63;41.30;100840.02;1683667;85;21255;-79
2023/05/12 02:52:09;;;;;;;29.12;9.90;;;;;;;13.90;40.79;100843.58;1683738;85;21172;-79
2023/05/12 02:55:15;;;;;;;27.32;10.93;;;;;;;14.27;40.11;100839.12;1679930;84;21232;-79
2023/05/12 02:58:20;;;;;;;23.92;10.40;;;;;;;14.77;39.24;100845.30;1646110;87;21263;-79
2023/05/12 03:01:26;;;;;;;24.90;10.28;;;;;;;14.86;38.80;100840.52;1642059;87;21228;-79
2023/05/12 03:04:32;;;;;;;24.20;9.18;;;;;;;14.88;38.65;100843.95;1644924;87;21854;-80
2023/05/12 03:07:38;;;;;;;21.40;9.48;;;;;;;15.37;37.89;100843.28;1629179;88;21776;-80
2023/05/12 03:10:45;;;;;;;24.02;9.25;;;;;;;15.58;37.33;100848.83;1651929;87;21269;-80
2023/05/12 03:13:50;;;;;;;33.00;11.25;;;;;;;15.86;36.98;100843.94;1652611;87;21211;-79
2023/05/12 03:16:56;;;;;;;27.70;11.38;;;;;;;16.17;36.40;100855.13;1653031;87;21208;-80
2023/05/12 03:20:02;;;;;;;29.95;11.12;;;;;;;16.36;35.99;100860.79;1653132;87;21275;-80
2023/05/12 03:23:06;;;;;;;29.57;11.15;;;;;;;16.52;35.72;100865.70;1653092;87;21251;-80
2023/05/12 03:26:12;;;;;;;23.27;10.13;;;;;;;16.69;35.50;100864.84;1651872;87;21790;-80
2023/05/12 03:29:12;;;;;;;29.80;11.30;;;;;;;16.94;35.11;100864.72;1653173;87;21207;-80
2023/05/12 03:32:18;;;;;;;31.42;11.25;;;;;;;17.01;34.81;100873.88;1653153;87;21271;-78
2023/05/12 03:35:25;;;;;;;23.27;10.30;;;;;;;17.41;34.14;100871.30;1651873;87;21219;-79
2023/05/12 03:38:31;;;;;;;27.17;10.15;;;;;;;17.65;33.79;100878.71;1651424;84;21932;-79
2023/05/12 03:41:37;;;;;;;20.60;8.63;;;;;;;17.97;33.27;100877.08;1643713;87;21223;-79
2023/05/12 03:44:42;;;;;;;19.85;9.10;;;;;;;18.02;32.93;100874.52;1681572;85;21216;-79
2023/05/12 03:47:50;;;;;;;22.75;11.35;;;;;;;17.95;33.01;100873.68;1677014;85;21177;-80
2023/05/12 03:50:57;;;;;;;26.97;11.48;;;;;;;17.74;33.46;100871.95;1674245;85;21209;-79
2023/05/12 03:54:03;;;;;;;23.98;10.50;;;;;;;17.53;33.75;100876.53;1673988;85;21212;-79
2023/05/12 03:57:09;;;;;;;26.85;11.55;;;;;;;17.79;33.37;100878.56;1674185;85;21189;-79
2023/05/12 04:00:16;;;;;;;32.80;9.83;;;;;;;17.71;33.63;100875.09;1672968;85;21240;-79
2023/05/12 04:03:21;;;;;;;23.77;9.78;;;;;;;17.49;34.00;100873.86;1674401;85;21219;-79
2023/05/12 04:06:27;;;;;;;25.85;9.73;;;;;;;17.46;34.24;100875.67;1672907;85;21201;-78
2023/05/12 04:09:32;;;;;;;26.85;10.15;;;;;;;17.49;34.30;100870.24;1674549;85;21193;-79
2023/05/12 04:12:38;;;;;;;20.00;9.33;;;;;;;17.75;34.24;100876.42;1674170;85;21205;-79
2023/05/12 04:15:45;;;;;;;20.02;8.85;;;;;;;17.78;34.07;100872.68;1673377;85;21260;-78
2023/05/12 04:18:52;;;;;;;19.25;9.05;;;;;;;17.90;34.16;100874.84;1675181;85;21197;-79
2023/05/12 04:21:58;;;;;;;23.87;8.78;;;;;;;18.06;34.21;100868.89;1672685;85;21209;-79
2023/05/12 04:25:04;;;;;;;16.50;7.90;;;;;;;18.39;33.80;100868.34;1673785;85;21272;-79
2023/05/12 04:28:09;;;;;;;18.62;8.75;;;;;;;18.56;33.41;100873.47;1653403;85;21207;-79
2023/05/12 04:31:15;;;;;;;21.90;7.58;;;;;;;18.84;33.07;100877.39;1643639;87;21189;-79
2023/05/12 04:34:21;;;;;;;24.00;8.03;;;;;;;19.03;33.46;100873.70;1643459;87;21232;-78
2023/05/12 04:37:28;;;;;;;17.37;7.80;;;;;;;19.02;33.19;100872.01;1640285;87;21195;-79
2023/05/12 04:40:34;;;;;;;25.68;7.40;;;;;;;19.24;33.30;100871.16;1632027;86;21386;-79
2023/05/12 04:43:40;;;;;;;17.62;7.60;;;;;;;19.37;32.85;100875.80;1654208;86;21268;-79
2023/05/12 04:46:52;;;;;;;12.78;6.05;;;;;;;19.64;32.69;100877.41;1703802;84;21212;-79
2023/05/12 04:49:56;;;;;;;12.60;6.45;;;;;;;19.79;32.30;100876.25;1705395;84;21184;-79
2023/05/12 04:53:02;;;;;;;13.38;6.08;;;;;;;19.76;32.97;100878.95;1704442;84;21207;-79
2023/05/12 04:56:10;;;;;;;12.68;5.75;;;;;;;19.95;32.15;100879.90;1678554;84;21255;-79
2023/05/12 04:59:17;;;;;;;12.37;6.25;;;;;;;19.96;31.97;100879.36;1651812;86;21278;-79
2023/05/12 05:02:23;;;;;;;17.00;6.95;;;;;;;19.94;31.99;100878.72;1655285;86;21215;-79
2023/05/12 05:05:30;;;;;;;20.77;6.58;;;;;;;19.95;32.43;100881.80;1657986;86;21251;-79
2023/05/12 05:08:36;;;;;;;13.88;6.15;;;;;;;20.02;32.44;100881.23;1655179;86;21287;-79
2023/05/12 05:11:42;;;;;;;21.97;6.67;;;;;;;20.40;32.46;100876.42;1647741;87;21304;-80
2023/05/12 05:14:52;;;;;;;13.90;5.95;;;;;;;20.50;31.92;100884.27;1658696;84;21223;-80
2023/05/12 05:17:58;;;;;;;18.63;6.57;;;;;;;20.65;31.26;100876.97;1651701;85;21272;-80
2023/05/12 05:21:03;;;;;;;22.50;6.08;;;;;;;20.65;32.05;100878.36;1642410;85;21201;-80
2023/05/12 05:24:09;;;;;;;18.00;6.33;;;;;;;20.66;32.14;100884.25;1683641;84;21872;-79
2023/05/12 05:27:15;;;;;;;17.10;6.03;;;;;;;20.86;32.09;100881.26;1682521;84;21200;-79
2023/05/12 05:30:21;;;;;;;13.88;5.92;;;;;;;20.81;32.14;100883.88;1673634;84;21206;-79
2023/05/12 05:33:20;;;;;;;20.05;6.15;;;;;;;20.93;32.38;100884.80;1627393;85;21740;-78
2023/05/12 05:36:25;;;;;;;11.28;5.53;;;;;;;21.22;31.28;100889.28;1640047;85;21205;-79
2023/05/12 05:39:31;;;;;;;14.53;4.78;;;;;;;21.50;30.55;100885.45;1641879;85;21276;-79
2023/05/12 05:42:36;;;;;;;15.20;6.05;;;;;;;21.68;29.79;100888.71;1652940;85;21209;-79
2023/05/12 05:45:42;;;;;;;10.60;4.87;;;;;;;21.95;30.18;100887.79;1648712;85;21276;-79
2023/05/12 05:48:48;;;;;;;14.70;5.03;;;;;;;22.08;29.46;100891.77;1663957;84;21213;-79
2023/05/12 05:51:54;;;;;;;17.82;5.12;;;;;;;22.14;29.24;100886.66;1645705;85;21224;-79
2023/05/12 05:55:00;;;;;;;9.53;4.62;;;;;;;22.44;28.76;100881.03;1636786;85;21244;-80
2023/05/12 05:58:06;;;;;;;14.45;4.67;;;;;;;22.75;28.14;100892.91;1663118;84;21212;-79
2023/05/12 06:01:12;;;;;;;15.25;5.10;;;;;;;19.98;31.58;100895.24;1654947;85;21276;-79
2023/05/12 06:04:17;;;;;;;11.20;4.12;;;;;;;18.92;32.74;100894.33;1655234;85;21215;-79
2023/05/12 06:07:23;;;;;;;9.38;4.70;;;;;;;20.05;31.87;100889.12;1667067;84;21216;-80
2023/05/12 06:10:30;;;;;;;16.05;4.62;;;;;;;20.91;31.00;100889.75;1658019;86;21313;-80
2023/05/12 06:13:35;;;;;;;6.10;3.25;;;;;;;21.31;30.30;100890.16;1664159;84;21233;-80
2023/05/12 06:16:41;;;;;;;6.42;3.17;;;;;;;21.72;27.65;100888.55;1678838;84;21269;-80
2023/05/12 06:19:49;;;;;;;6.53;3.05;;;;;;;21.72;27.21;100895.52;1643343;86;21218;-80
2023/05/12 06:22:54;;;;;;;17.10;3.42;;;;;;;21.77;27.66;100898.98;1659474;85;21247;-80
2023/05/12 06:25:53;;;;;;;7.92;3.52;;;;;;;21.70;27.30;100894.91;1663867;84;21285;-78
2023/05/12 06:28:46;;;;;;;9.38;2.70;;;;;;;21.31;27.09;100882.36;1642566;85;21243;-79
2023/05/12 06:31:52;;;;;;;9.50;3.00;;;;;;;20.79;28.30;100884.09;1614691;86;21387;-79
2023/05/12 06:34:58;;;;;;;14.43;3.05;;;;;;;21.22;28.32;100880.94;1626071;85;21564;-80
2023/05/12 06:38:03;;;;;;;12.15;3.00;;;;;;;21.19;27.11;100884.50;1647661;85;21756;-79
2023/05/12 06:41:08;;;;;;;7.65;2.70;;;;;;;21.02;27.84;100879.24;1650612;85;21248;-80
2023/05/12 06:44:14;;;;;;;8.70;2.80;;;;;;;21.14;26.27;100889.07;1632976;86;21262;-80
2023/05/12 06:47:20;;;;;;;6.40;2.60;;;;;;;21.40;25.57;100889.30;1604124;87;21241;-80
2023/05/12 06:50:27;;;;;;;5.55;2.60;;;;;;;20.84;26.51;100889.84;1594765;87;21899;-80
2023/05/12 06:53:36;;;;;;;4.17;2.20;;;;;;;21.11;25.78;100890.37;1633116;85;21259;-80
2023/05/12 06:56:40;;;;;;;5.72;2.37;;;;;;;21.13;26.08;100891.00;1627933;86;21314;-80
2023/05/12 06:59:46;;;;;;;10.28;2.55;;;;;;;21.10;26.77;100897.56;1614862;87;21263;-80
2023/05/12 07:02:52;;;;;;;13.05;2.40;;;;;;;21.10;25.99;100891.45;1612380;87;21217;-79
2023/05/12 07:05:57;;;;;;;9.50;2.37;;;;;;;21.01;26.18;100888.67;1614247;86;21275;-81
2023/05/12 07:09:02;;;;;;;6.33;2.30;;;;;;;21.52;26.01;100899.13;1649731;86;21274;-79
2023/05/12 07:12:07;;;;;;;10.35;3.42;;;;;;;21.66;25.42;100900.64;1614497;87;21273;-79
2023/05/12 07:15:13;;;;;;;9.75;3.65;;;;;;;21.93;25.62;100899.73;1614244;86;21310;-79
2023/05/12 07:18:19;;;;;;;9.70;3.65;;;;;;;21.76;26.08;100897.29;1613853;87;21271;-80
2023/05/12 07:21:25;;;;;;;11.93;3.72;;;;;;;21.73;26.01;100905.55;1615336;87;21183;-80
2023/05/12 07:24:30;;;;;;;16.80;3.47;;;;;;;21.68;25.51;100897.91;1637976;85;21293;-79
2023/05/12 07:27:35;;;;;;;13.30;3.85;;;;;;;22.08;25.27;100901.52;1624795;88;21273;-80
2023/05/12 07:30:42;;;;;;;9.15;3.77;;;;;;;21.94;25.78;100906.98;1621922;88;21825;-80
2023/05/12 07:33:47;;;;;;;7.30;3.33;;;;;;;21.79;26.66;100904.64;1611811;87;21521;-79
2023/05/12 07:36:53;;;;;;;9.60;2.72;;;;;;;21.79;25.75;100906.58;1617617;88;21252;-80
2023/05/12 07:39:58;;;;;;;8.00;3.00;;;;;;;21.76;25.20;100899.53;1625846;86;21245;-81
2023/05/12 07:43:04;;;;;;;7.30;2.10;;;;;;;21.77;25.48;100897.59;1633141;83;21259;-81
2023/05/12 07:46:11;;;;;;;6.20;2.25;;;;;;;21.90;25.79;100901.58;1658456;84;21213;-80
2023/05/12 07:49:16;;;;;;;6.53;2.00;;;;;;;21.94;24.58;100890.28;1661155;84;22219;-80
2023/05/12 07:52:23;;;;;;;7.17;1.90;;;;;;;22.04;24.18;100898.90;1631350;87;22640;-80
2023/05/12 07:55:28;;;;;;;5.67;2.20;;;;;;;21.83;24.83;100891.06;1584965;88;21807;-80
2023/05/12 07:58:34;;;;;;;4.70;2.15;;;;;;;21.77;23.41;100885.91;1616362;87;21224;-81
2023/05/12 08:01:39;;;;;;;12.98;3.05;;;;;;;21.90;23.40;100899.64;1621589;87;21193;-80
2023/05/12 08:04:47;;;;;;;6.50;2.10;;;;;;;21.99;23.47;100887.63;1601740;88;21362;-79
2023/05/12 08:07:53;;;;;;;4.85;2.30;;;;;;;22.03;24.14;100895.81;1597483;87;21235;-81
2023/05/12 08:11:00;;;;;;;7.95;2.40;;;;;;;22.16;24.07;100891.47;1627814;87;22379;-80
2023/05/12 08:14:10;;;;;;;8.25;2.50;;;;;;;22.30;24.25;100889.31;1676778;85;21239;-80
2023/05/12 08:17:18;;;;;;;4.67;2.52;;;;;;;22.13;23.72;100876.61;1665563;86;21224;-79
2023/05/12 08:20:27;;;;;;;4.20;1.72;;;;;;;22.19;25.04;100881.22;1677015;84;21176;-80
2023/05/12 08:23:33;;;;;;;6.40;2.10;;;;;;;22.58;24.22;100884.41;1671526;84;21188;-80
2023/05/12 08:26:39;;;;;;;11.30;2.83;;;;;;;22.80;23.24;100876.84;1666397;84;21210;-81
2023/05/12 08:29:44;;;;;;;3.87;2.25;;;;;;;22.82;23.98;100875.52;1651641;84;21239;-80
2023/05/12 08:32:50;;;;;;;5.67;2.22;;;;;;;22.40;23.65;100862.25;1668618;84;21191;-82
2023/05/12 08:35:56;;;;;;;5.17;2.00;;;;;;;22.79;23.12;100864.00;1678177;84;21183;-80
2023/05/12 08:39:02;;;;;;;13.40;1.98;;;;;;;22.91;23.30;100858.75;1647380;84;21257;-80
2023/05/12 08:42:30;;;;;;;5.35;1.85;;;;;;;23.14;23.52;100856.98;1667445;83;21208;-80
2023/05/12 08:45:36;;;;;;;4.87;2.15;;;;;;;22.77;24.07;100871.74;1661240;85;21255;-80
2023/05/12 08:48:42;;;;;;;7.75;2.22;;;;;;;22.78;23.63;100877.09;1641529;87;21232;-80
2023/05/12 08:51:51;;;;;;;7.47;2.17;;;;;;;22.74;23.99;100868.06;1628007;86;21763;-80
2023/05/12 08:54:57;;;;;;;11.20;2.27;;;;;;;22.75;23.37;100871.15;1665550;85;21844;-81
2023/05/12 08:58:06;;;;;;;12.03;2.15;;;;;;;22.54;23.32;100862.31;1655529;85;21323;-80
2023/05/12 09:01:13;;;;;;;8.55;2.12;;;;;;;22.24;23.21;100847.61;1664410;85;21244;-80
2023/05/12 09:04:18;;;;;;;11.18;1.90;;;;;;;22.25;23.69;100852.94;1656215;85;21247;-80
2023/05/12 09:07:33;;;;;;;6.87;1.92;;;;;;;22.15;23.83;100848.50;1660508;85;21240;-81
2023/05/12 09:10:39;;;;;;;6.25;1.77;;;;;;;22.37;24.37;100858.53;1657229;85;21196;-79
2023/05/12 09:13:59;;;;;;;6.17;2.00;;;;;;;22.35;23.29;100847.64;1645103;85;21193;-80
2023/05/12 09:17:07;;;;;;;19.20;2.72;;;;;;;22.33;24.13;100848.95;1664438;85;21224;-80
2023/05/12 09:20:14;;;;;;;3.05;1.75;;;;;;;22.44;23.26;100857.34;1664602;85;22023;-80
2023/05/12 09:23:24;;;;;;;6.80;2.00;;;;;;;22.32;24.04;100851.45;1653446;85;21180;-80
2023/05/12 09:26:30;;;;;;;17.48;4.67;;;;;;;22.45;23.16;100845.65;1652678;85;21220;-80
2023/05/12 09:29:35;;;;;;;18.12;4.47;;;;;;;22.54;23.38;100851.16;1653974;85;21203;-79
2023/05/12 09:32:43;;;;;;;7.95;2.42;;;;;;;22.52;23.85;100846.36;1652584;85;21248;-80
2023/05/12 09:35:51;;;;;;;10.05;1.90;;;;;;;22.53;22.88;100852.78;1662875;85;21751;-80
2023/05/12 09:39:12;;;;;;;7.90;1.72;;;;;;;22.50;23.31;100856.91;1656810;85;21207;-80
2023/05/12 09:42:20;;;;;;;7.97;2.15;;;;;;;22.42;23.43;100851.69;1671432;85;21189;-80
2023/05/12 09:45:26;;;;;;;14.53;3.77;;;;;;;22.60;23.15;100850.73;1673690;83;21277;-80
2023/05/12 09:48:32;;;;;;;10.10;1.90;;;;;;;22.44;23.11;100832.77;1625404;87;21206;-79
2023/05/12 09:51:40;;;;;;;4.50;1.80;;;;;;;22.95;22.83;100833.98;1653511;86;21192;-79
2023/05/12 09:54:48;;;;;;;3.22;1.35;;;;;;;22.85;22.27;100822.58;1683160;85;21208;-80
2023/05/12 09:57:53;;;;;;;5.08;1.77;;;;;;;22.94;22.23;100826.72;1627012;86;21328;-79
2023/05/12 10:00:59;;;;;;;3.80;1.70;;;;;;;22.97;23.24;100830.97;1641096;86;21217;-79
2023/05/12 10:04:06;;;;;;;5.42;2.05;;;;;;;22.97;22.72;100831.81;1651490;85;21201;-79
2023/05/12 10:07:13;;;;;;;3.42;1.65;;;;;;;23.09;22.41;100825.64;1638154;86;22166;-79
2023/05/12 10:10:19;;;;;;;3.40;1.72;;;;;;;23.32;22.81;100828.06;1662676;84;21617;-80
2023/05/12 10:13:26;;;;;;;3.10;1.70;;;;;;;23.29;21.78;100817.39;1654974;84;21824;-79
2023/05/12 10:16:33;;;;;;;11.10;1.98;;;;;;;23.25;22.57;100817.06;1654603;85;21246;-80
2023/05/12 10:19:39;;;;;;;7.55;1.60;;;;;;;23.33;22.17;100811.61;1651418;86;21252;-79
2023/05/12 10:22:47;;;;;;;3.30;1.77;;;;;;;23.04;23.07;100817.16;1667131;84;21212;-80
2023/05/12 10:25:52;;;;;;;7.78;1.52;;;;;;;23.08;22.75;100815.58;1659333;86;21251;-80
2023/05/12 10:28:57;;;;;;;3.62;1.75;;;;;;;23.24;21.82;100802.78;1654887;85;21689;-80
2023/05/12 10:32:05;;;;;;;4.40;2.22;;;;;;;23.48;22.35;100804.96;1637781;85;21271;-80
2023/05/12 10:35:21;;;;;;;8.20;1.98;;;;;;;23.41;22.75;100800.06;1629919;86;21728;-80
2023/05/12 10:38:26;;;;;;;10.10;2.30;;;;;;;23.26;23.27;100812.32;1684711;85;21244;-80
2023/05/12 10:41:41;;;;;;;7.00;1.90;;;;;;;23.27;21.82;100801.45;1643904;86;21399;-80
2023/05/12 10:45:01;;;;;;;3.37;1.60;;;;;;;23.41;22.27;100800.91;1656350;86;21192;-80
2023/05/12 10:48:14;;;;;;;2.95;1.80;;;;;;;23.56;21.85;100793.92;1628893;85;21772;-79
2023/05/12 10:51:21;;;;;;;3.72;1.72;;;;;;;23.20;21.50;100791.30;1627177;85;21292;-79
2023/05/12 10:54:30;;;;;;;3.92;1.95;;;;;;;23.14;22.23;100799.79;1624167;85;21201;-80
2023/05/12 10:57:35;;;;;;;3.70;1.75;;;;;;;23.15;21.30;100784.22;1643016;85;21203;-79
2023/05/12 11:00:57;;;;;;;4.20;1.80;;;;;;;23.38;22.04;100802.82;1641300;87;21218;-79
2023/05/12 11:04:10;;;;;;;5.17;1.95;;;;;;;23.54;21.88;100789.14;1639053;85;21200;-79
2023/05/12 11:07:17;;;;;;;10.05;2.17;;;;;;;23.84;22.75;100802.29;1629317;88;21217;-79
2023/05/12 11:10:23;;;;;;;5.17;1.80;;;;;;;23.94;22.69;100789.89;1643803;87;21235;-79
2023/05/12 11:13:30;;;;;;;5.37;1.90;;;;;;;23.96;21.56;100790.50;1656320;85;22017;-79
2023/05/12 11:16:36;;;;;;;6.62;2.30;;;;;;;24.05;22.60;100795.12;1652183;85;21771;-79
2023/05/12 11:19:41;;;;;;;14.70;2.40;;;;;;;24.01;21.87;100792.53;1668348;85;21185;-79
2023/05/12 11:22:48;;;;;;;8.63;1.92;;;;;;;24.08;22.28;100789.00;1650940;85;21579;-79
2023/05/12 11:25:54;;;;;;;10.43;2.72;;;;;;;24.20;22.24;100784.19;1652647;85;21249;-79
2023/05/12 11:29:00;;;;;;;7.10;2.20;;;;;;;24.22;23.31;100779.17;1651953;85;21331;-79
2023/05/12 11:32:05;;;;;;;9.18;2.35;;;;;;;24.50;21.76;100779.34;1616587;87;21300;-80
2023/05/12 11:35:23;;;;;;;7.08;2.15;;;;;;;24.53;21.09;100778.84;1658746;85;21252;-79
2023/05/12 11:38:30;;;;;;;5.90;2.27;;;;;;;24.53;21.12;100772.70;1658970;85;21197;-79
2023/05/12 11:41:32;;;;;;;7.67;2.05;;;;;;;24.60;22.41;100787.88;1656278;85;21295;-79
2023/05/12 11:44:37;;;;;;;5.72;1.95;;;;;;;24.73;21.83;100774.38;1645295;84;21220;-79
2023/05/12 11:47:43;;;;;;;11.22;2.52;;;;;;;24.50;21.17;100777.95;1660895;84;21204;-79
2023/05/12 11:50:50;;;;;;;5.10;1.90;;;;;;;24.22;21.88;100767.16;1671497;85;21312;-79
2023/05/12 11:53:56;;;;;;;4.58;2.30;;;;;;;24.04;22.05;100772.45;1654514;85;21209;-79
2023/05/12 11:57:03;;;;;;;9.13;2.27;;;;;;;24.12;20.85;100755.81;1623582;88;21771;-79
2023/05/12 12:00:10;;;;;;;4.70;1.90;;;;;;;24.18;21.67;100758.45;1624261;86;21883;-79
2023/05/12 12:03:18;;;;;;;9.83;2.40;;;;;;;24.08;22.18;100768.60;1653810;85;21255;-79
2023/05/12 12:06:23;;;;;;;3.83;1.90;;;;;;;23.80;22.07;100762.55;1654909;85;21200;-79
2023/05/12 12:09:42;;;;;;;6.50;2.40;;;;;;;23.56;22.30;100774.38;1652818;85;21199;-79
2023/05/12 12:12:48;;;;;;;9.30;2.12;;;;;;;23.44;21.82;100766.92;1641063;87;21260;-79
2023/05/12 12:15:53;;;;;;;7.72;2.42;;;;;;;23.54;21.83;100762.07;1642157;87;21591;-79
2023/05/12 12:19:00;;;;;;;6.95;2.22;;;;;;;23.65;21.95;100763.97;1672297;85;21193;-79
2023/05/12 12:22:09;;;;;;;7.58;2.12;;;;;;;23.73;22.23;100750.16;1648753;85;21195;-78
2023/05/12 12:25:20;;;;;;;9.98;1.77;;;;;;;23.87;22.08;100754.86;1644033;87;21268;-80
2023/05/12 12:28:26;;;;;;;10.58;2.02;;;;;;;24.04;23.21;100754.84;1641065;87;21235;-80
2023/05/12 12:31:33;;;;;;;7.15;2.08;;;;;;;24.08;22.20;100754.63;1640580;87;21318;-80
2023/05/12 12:34:40;;;;;;;5.55;2.25;;;;;;;24.20;21.09;100761.83;1621995;88;21875;-80
2023/05/12 12:37:50;;;;;;;2.83;1.35;;;;;;;24.18;21.01;100749.20;1622119;88;21265;-79
2023/05/12 12:40:55;;;;;;;4.40;2.00;;;;;;;24.52;21.39;100749.20;1627268;88;21228;-80
2023/05/12 12:44:01;;;;;;;11.90;2.27;;;;;;;24.51;20.19;100739.09;1627565;88;21521;-80
2023/05/12 12:47:06;;;;;;;6.60;2.83;;;;;;;24.45;20.60;100739.58;1625598;88;21264;-80
2023/05/12 12:50:15;;;;;;;11.48;2.20;;;;;;;24.38;21.08;100740.33;1644025;87;21804;-79
2023/05/12 12:53:23;;;;;;;7.40;2.10;;;;;;;24.47;20.58;100745.77;1645067;87;21310;-80
2023/05/12 12:56:28;;;;;;;5.08;2.67;;;;;;;24.37;20.53;100742.28;1645673;87;21782;-79
2023/05/12 12:59:33;;;;;;;4.45;2.12;;;;;;;24.52;19.85;100736.06;1645059;87;21836;-80
2023/05/12 13:02:40;;;;;;;5.17;2.08;;;;;;;24.48;20.38;100730.69;1643834;87;21226;-80
2023/05/12 13:05:47;;;;;;;8.55;2.25;;;;;;;25.04;19.98;100736.16;1645550;87;21218;-79
2023/05/12 13:08:55;;;;;;;4.37;1.60;;;;;;;25.05;19.91;100738.69;1646545;85;21858;-79
2023/05/12 13:12:11;;;;;;;7.72;2.10;;;;;;;25.03;19.87;100742.31;1667241;86;21252;-80
2023/05/12 13:15:19;;;;;;;8.40;2.05;;;;;;;24.97;19.88;100751.73;1638332;87;21229;-80
2023/05/12 13:18:26;;;;;;;5.37;2.50;;;;;;;24.59;20.49;100751.23;1639469;87;21807;-80
2023/05/12 13:21:32;;;;;;;4.33;1.95;;;;;;;24.44;20.05;100740.69;1638818;87;21225;-80
2023/05/12 13:24:37;;;;;;;8.50;1.77;;;;;;;24.52;20.93;100746.40;1638852;87;21851;-80
2023/05/12 13:27:43;;;;;;;5.25;1.80;;;;;;;24.63;20.17;100742.63;1639602;87;21241;-80
2023/05/12 13:30:49;;;;;;;4.42;1.82;;;;;;;24.49;20.01;100733.77;1639514;87;21257;-80
2023/05/12 13:33:55;;;;;;;3.50;1.85;;;;;;;24.53;19.77;100740.54;1639126;87;21276;-79
2023/05/12 13:37:01;;;;;;;7.47;2.05;;;;;;;24.68;19.29;100731.51;1639761;87;21213;-79
2023/05/12 13:40:06;;;;;;;4.75;1.90;;;;;;;24.73;19.79;100731.57;1639787;87;21815;-79
2023/05/12 13:43:12;;;;;;;3.70;1.70;;;;;;;24.76;20.35;100726.87;1639572;87;21221;-79
2023/05/12 13:46:19;;;;;;;5.08;1.70;;;;;;;24.81;19.51;100733.08;1639130;87;21292;-79
2023/05/12 13:49:24;;;;;;;5.10;2.15;;;;;;;24.40;20.11;100733.36;1640238;85;21248;-79
2023/05/12 13:52:30;;;;;;;8.73;1.92;;;;;;;24.59;19.59;100738.09;1640005;87;21312;-79
2023/05/12 13:55:37;;;;;;;7.87;2.05;;;;;;;24.77;20.01;100736.09;1640069;87;21260;-80
2023/05/12 13:58:43;;;;;;;2.92;1.75;;;;;;;24.82;20.49;100741.75;1640137;87;21229;-80
2023/05/12 14:01:45;;;;;;;3.52;1.75;;;;;;;24.91;19.32;100734.59;1640152;87;21181;-80
2023/05/12 14:04:43;;;;;;;;;;;;;;;24.57;21.04;100734.73;1642486;87;21523;-79
2023/05/12 14:07:28;;;;;;;4.65;2.08;;;;;;;24.66;20.49;100735.97;1640103;87;20217;-80
2023/05/12 14:10:21;;;;;;;5.45;2.25;;;;;;;24.69;20.48;100732.64;1613955;89;21272;-79
2023/05/12 14:13:07;;;;;;;9.98;2.40;;;;;;;24.73;20.57;100734.37;1613587;89;21260;-80
2023/05/12 14:16:00;;;;;;;5.50;2.05;;;;;;;24.80;20.61;100741.19;1613480;89;21249;-81
2023/05/12 14:18:51;;;;;;;4.17;2.33;;;;;;;24.81;19.95;100731.68;1621472;86;21203;-80
2023/05/12 14:21:47;;;;;;;7.62;2.47;;;;;;;24.66;20.21;100740.16;1620825;88;21786;-80